createdAt,value
2017-07-30T00:00:31.184Z,1001.76
2017-07-30T00:01:31.360Z,1001.76
2017-07-30T00:02:37.705Z,1001.76
2017-07-30T00:03:32.515Z,1001.75
2017-07-30T00:04:26.451Z,1001.75
2017-07-30T00:05:14.455Z,1001.72
2017-07-30T00:06:03.840Z,1001.72
2017-07-30T00:06:52.525Z,1001.74
2017-07-30T00:07:40.980Z,1001.73
2017-07-30T00:08:28.624Z,1001.71
2017-07-30T00:09:17.957Z,1001.72
2017-07-30T00:10:06.070Z,1001.71
2017-07-30T00:10:53.699Z,1001.74
2017-07-30T00:11:42.833Z,1001.75
2017-07-30T00:12:31.058Z,1001.71
2017-07-30T00:13:18.822Z,1001.69
2017-07-30T00:14:19.863Z,1001.70
2017-07-30T00:15:20.130Z,1001.67
2017-07-30T00:16:26.054Z,1001.69
2017-07-30T00:17:21.132Z,1001.66
2017-07-30T00:18:15.076Z,1001.63
2017-07-30T00:19:15.198Z,1001.66
2017-07-30T00:20:15.333Z,1001.63
2017-07-30T00:21:10.310Z,1001.62
2017-07-30T00:22:04.296Z,1001.67
2017-07-30T00:23:04.416Z,1001.62
2017-07-30T00:23:59.317Z,1001.67
2017-07-30T00:24:59.656Z,1001.62
2017-07-30T00:25:59.803Z,1001.62
2017-07-30T00:26:59.345Z,1001.60
2017-07-30T00:27:53.443Z,1001.61
2017-07-30T00:28:54.514Z,1001.59
2017-07-30T00:29:49.539Z,1001.59
2017-07-30T00:30:45.028Z,1001.59
2017-07-30T00:31:39.647Z,1001.56
2017-07-30T00:32:34.059Z,1001.61
2017-07-30T00:33:33.624Z,1001.61
2017-07-30T00:34:34.724Z,1001.58
2017-07-30T00:35:36.197Z,1001.65
2017-07-30T00:36:36.217Z,1001.60
2017-07-30T00:37:37.249Z,1001.65
2017-07-30T00:38:38.307Z,1001.62
2017-07-30T00:39:32.313Z,1001.62
2017-07-30T00:40:32.291Z,1001.73
2017-07-30T00:41:27.308Z,1001.71
2017-07-30T00:42:22.415Z,1001.77
2017-07-30T00:43:21.997Z,1001.84
2017-07-30T00:44:17.063Z,1001.79
2017-07-30T00:45:12.455Z,1001.70
2017-07-30T00:46:12.390Z,1001.58
2017-07-30T00:47:07.446Z,1001.54
2017-07-30T00:48:02.317Z,1001.55
2017-07-30T00:48:57.201Z,1001.51
2017-07-30T00:49:51.719Z,1001.46
2017-07-30T00:50:45.849Z,1001.43
2017-07-30T00:51:45.487Z,1001.38
2017-07-30T00:52:39.556Z,1001.38
2017-07-30T00:53:33.566Z,1001.37
2017-07-30T00:54:27.907Z,1001.37
2017-07-30T00:55:27.869Z,1001.35
2017-07-30T00:56:27.654Z,1001.32
2017-07-30T00:57:21.691Z,1001.31
2017-07-30T00:58:17.050Z,1001.31
2017-07-30T00:59:16.763Z,1001.27
2017-07-30T01:00:11.733Z,1001.28
2017-07-30T01:01:07.237Z,1001.27
2017-07-30T01:02:07.799Z,1001.26
2017-07-30T01:03:07.962Z,1001.28
2017-07-30T01:04:07.890Z,1001.27
2017-07-30T01:05:03.016Z,1001.27
2017-07-30T01:05:57.235Z,1001.24
2017-07-30T01:06:57.408Z,1001.29
2017-07-30T01:07:52.466Z,1001.27
2017-07-30T01:08:52.133Z,1001.27
2017-07-30T01:09:46.145Z,1001.26
2017-07-30T01:10:46.711Z,1001.24
2017-07-30T01:11:41.598Z,1001.23
2017-07-30T01:12:36.670Z,1001.21
2017-07-30T01:13:36.725Z,1001.26
2017-07-30T01:14:31.711Z,1001.23
2017-07-30T01:15:26.696Z,1001.25
2017-07-30T01:16:27.978Z,1001.30
2017-07-30T01:17:27.461Z,1001.30
2017-07-30T01:18:22.561Z,1001.34
2017-07-30T01:19:10.975Z,1001.34
2017-07-30T01:19:58.720Z,1001.31
2017-07-30T01:20:47.931Z,1001.34
2017-07-30T01:21:36.901Z,1001.31
2017-07-30T01:22:24.815Z,1001.30
2017-07-30T01:23:13.882Z,1001.29
2017-07-30T01:24:13.856Z,1001.22
2017-07-30T01:25:08.899Z,1001.22
2017-07-30T01:26:03.387Z,1001.20
2017-07-30T01:27:03.238Z,1001.19
2017-07-30T01:28:03.398Z,1001.17
2017-07-30T01:28:58.304Z,1001.18
2017-07-30T01:29:53.325Z,1001.16
2017-07-30T01:30:53.557Z,1001.13
2017-07-30T01:31:48.583Z,1001.11
2017-07-30T01:32:43.616Z,1001.09
2017-07-30T01:33:43.655Z,1001.04
2017-07-30T01:34:38.496Z,1001.02
2017-07-30T01:35:33.376Z,1001.02
2017-07-30T01:36:34.297Z,1000.99
2017-07-30T01:37:34.415Z,1000.98
2017-07-30T01:38:34.720Z,1000.95
2017-07-30T01:39:34.518Z,1000.91
2017-07-30T01:40:28.805Z,1000.90
2017-07-30T01:41:16.965Z,1000.89
2017-07-30T01:42:05.012Z,1000.92
2017-07-30T01:42:53.932Z,1000.90
2017-07-30T01:43:41.693Z,1000.90
2017-07-30T01:44:30.698Z,1000.86
2017-07-30T01:45:18.795Z,1000.90
2017-07-30T01:46:07.037Z,1000.92
2017-07-30T01:46:55.853Z,1000.89
2017-07-30T01:47:43.933Z,1000.90
2017-07-30T01:48:32.130Z,1000.89
2017-07-30T01:49:21.198Z,1000.90
2017-07-30T01:50:09.394Z,1000.87
2017-07-30T01:50:57.463Z,1000.90
2017-07-30T01:51:45.105Z,1000.89
2017-07-30T01:52:34.170Z,1000.88
2017-07-30T01:53:22.427Z,1000.86
2017-07-30T01:54:10.428Z,1000.85
2017-07-30T01:54:59.784Z,1000.86
2017-07-30T01:55:47.786Z,1000.85
2017-07-30T01:56:36.757Z,1000.86
2017-07-30T01:57:24.569Z,1000.81
2017-07-30T01:58:12.768Z,1000.81
2017-07-30T01:59:00.577Z,1000.77
2017-07-30T01:59:48.976Z,1000.75
2017-07-30T02:00:38.180Z,1000.74
2017-07-30T02:01:26.233Z,1000.71
2017-07-30T02:02:14.728Z,1000.74
2017-07-30T02:03:02.850Z,1000.74
2017-07-30T02:03:51.905Z,1000.78
2017-07-30T02:04:39.884Z,1000.76
2017-07-30T02:05:34.209Z,1000.76
2017-07-30T02:06:22.433Z,1000.73
2017-07-30T02:07:09.994Z,1000.72
2017-07-30T02:07:58.199Z,1000.75
2017-07-30T02:08:46.203Z,1000.71
2017-07-30T02:09:35.264Z,1000.71
2017-07-30T02:10:23.414Z,1000.69
2017-07-30T02:11:11.634Z,1000.71
2017-07-30T02:12:05.578Z,1000.68
2017-07-30T02:12:54.314Z,1000.70
2017-07-30T02:13:48.615Z,1000.65
2017-07-30T02:14:36.693Z,1000.69
2017-07-30T02:15:25.806Z,1000.70
2017-07-30T02:16:14.914Z,1000.66
2017-07-30T02:17:02.962Z,1000.66
2017-07-30T02:17:52.044Z,1000.62
2017-07-30T02:18:45.932Z,1000.62
2017-07-30T02:19:34.050Z,1000.60
2017-07-30T02:20:21.685Z,1000.59
2017-07-30T02:21:10.037Z,1000.58
2017-07-30T02:21:58.861Z,1000.56
2017-07-30T02:22:46.870Z,1000.56
2017-07-30T02:23:35.040Z,1000.57
2017-07-30T02:24:28.962Z,1000.54
2017-07-30T02:25:17.183Z,1000.49
2017-07-30T02:26:12.168Z,1000.46
2017-07-30T02:27:00.400Z,1000.44
2017-07-30T02:27:55.203Z,1000.41
2017-07-30T02:28:43.197Z,1000.41
2017-07-30T02:29:31.339Z,1000.41
2017-07-30T02:30:20.405Z,1000.42
2017-07-30T02:31:08.766Z,1000.41
2017-07-30T02:31:56.734Z,1000.38
2017-07-30T02:32:45.652Z,1000.40
2017-07-30T02:33:33.527Z,1000.41
2017-07-30T02:34:22.620Z,1000.46
2017-07-30T02:35:10.487Z,1000.46
2017-07-30T02:36:05.129Z,1000.48
2017-07-30T02:36:53.800Z,1000.48
2017-07-30T02:37:43.189Z,1000.45
2017-07-30T02:38:36.700Z,1000.43
2017-07-30T02:39:25.927Z,1000.47
2017-07-30T02:40:31.980Z,1000.47
2017-07-30T02:41:27.542Z,1000.45
2017-07-30T02:42:26.792Z,1000.41
2017-07-30T02:43:20.977Z,1000.35
2017-07-30T02:44:21.137Z,1000.39
2017-07-30T02:45:16.006Z,1000.37
2017-07-30T02:46:11.393Z,1000.39
2017-07-30T02:47:11.064Z,1000.37
2017-07-30T02:48:06.455Z,1000.38
2017-07-30T02:49:01.138Z,1000.36
2017-07-30T02:50:01.506Z,1000.36
2017-07-30T02:50:56.638Z,1000.35
2017-07-30T02:51:51.676Z,1000.33
2017-07-30T02:52:52.546Z,1000.27
2017-07-30T02:53:52.361Z,1000.28
2017-07-30T02:54:52.651Z,1000.26
2017-07-30T02:55:52.767Z,1000.25
2017-07-30T02:56:53.579Z,1000.23
2017-07-30T02:57:54.866Z,1000.21
2017-07-30T02:58:48.700Z,1000.21
2017-07-30T02:59:48.981Z,1000.22
2017-07-30T03:00:43.904Z,1000.21
2017-07-30T03:01:38.696Z,1000.22
2017-07-30T03:02:39.028Z,1000.20
2017-07-30T03:03:38.696Z,1000.19
2017-07-30T03:04:38.837Z,1000.18
2017-07-30T03:05:33.782Z,1000.20
2017-07-30T03:06:33.915Z,1000.18
2017-07-30T03:07:27.984Z,1000.14
2017-07-30T03:08:29.080Z,1000.18
2017-07-30T03:09:30.119Z,1000.10
2017-07-30T03:10:25.165Z,1000.13
2017-07-30T03:11:19.036Z,1000.09
2017-07-30T03:12:19.018Z,1000.11
2017-07-30T03:13:14.504Z,1000.03
2017-07-30T03:14:14.412Z,1000.02
2017-07-30T03:15:08.183Z,1000.03
2017-07-30T03:16:08.564Z,1000.05
2017-07-30T03:17:03.492Z,1000.04
2017-07-30T03:17:58.388Z,999.97
2017-07-30T03:18:59.500Z,999.95
2017-07-30T03:20:00.692Z,999.98
2017-07-30T03:20:55.849Z,999.97
2017-07-30T03:21:49.607Z,999.92
2017-07-30T03:22:50.433Z,999.96
2017-07-30T03:23:50.972Z,999.90
2017-07-30T03:24:50.983Z,999.93
2017-07-30T03:25:50.940Z,999.94
2017-07-30T03:26:51.761Z,999.94
2017-07-30T03:27:52.828Z,999.90
2017-07-30T03:28:52.824Z,999.91
2017-07-30T03:29:59.742Z,999.91
2017-07-30T03:30:59.829Z,999.88
2017-07-30T03:32:05.872Z,999.80
2017-07-30T03:33:00.795Z,999.79
2017-07-30T03:34:01.024Z,999.81
2017-07-30T03:34:55.906Z,999.81
2017-07-30T03:35:51.012Z,999.79
2017-07-30T03:36:51.093Z,999.76
2017-07-30T03:37:46.139Z,999.72
2017-07-30T03:38:41.487Z,999.65
2017-07-30T03:39:42.160Z,999.65
2017-07-30T03:40:42.577Z,999.68
2017-07-30T03:41:42.218Z,999.71
2017-07-30T03:42:42.723Z,999.68
2017-07-30T03:43:42.366Z,999.67
2017-07-30T03:44:43.537Z,999.75
2017-07-30T03:45:43.829Z,999.79
2017-07-30T03:46:44.610Z,999.80
2017-07-30T03:47:38.688Z,999.78
2017-07-30T03:48:38.635Z,999.70
2017-07-30T03:49:33.832Z,999.67
2017-07-30T03:50:28.998Z,999.67
2017-07-30T03:51:17.581Z,999.62
2017-07-30T03:52:06.833Z,999.63
2017-07-30T03:52:54.742Z,999.60
2017-07-30T03:53:44.002Z,999.57
2017-07-30T03:54:37.780Z,999.61
2017-07-30T03:55:37.864Z,999.64
2017-07-30T03:56:37.865Z,999.68
2017-07-30T03:57:37.804Z,999.67
2017-07-30T03:58:38.324Z,999.67
2017-07-30T03:59:37.945Z,999.66
2017-07-30T04:00:39.059Z,999.63
2017-07-30T04:01:40.073Z,999.62
2017-07-30T04:02:40.615Z,999.63
2017-07-30T04:03:40.313Z,999.63
2017-07-30T04:04:40.406Z,999.65
2017-07-30T04:05:40.447Z,999.67
2017-07-30T04:06:34.561Z,999.70
2017-07-30T04:07:34.607Z,999.69
2017-07-30T04:08:29.623Z,999.70
2017-07-30T04:09:24.695Z,999.70
2017-07-30T04:10:24.753Z,999.71
2017-07-30T04:11:19.817Z,999.69
2017-07-30T04:12:14.728Z,999.65
2017-07-30T04:13:08.835Z,999.62
2017-07-30T04:14:08.872Z,999.61
2017-07-30T04:15:03.996Z,999.61
2017-07-30T04:16:09.973Z,999.65
2017-07-30T04:17:05.125Z,999.66
2017-07-30T04:17:59.087Z,999.65
2017-07-30T04:18:59.187Z,999.61
2017-07-30T04:19:54.155Z,999.58
2017-07-30T04:20:48.194Z,999.54
2017-07-30T04:21:42.252Z,999.54
2017-07-30T04:22:36.227Z,999.54
2017-07-30T04:23:37.288Z,999.55
2017-07-30T04:24:31.281Z,999.52
2017-07-30T04:25:25.443Z,999.54
2017-07-30T04:26:13.370Z,999.54
2017-07-30T04:27:02.484Z,999.54
2017-07-30T04:27:56.502Z,999.55
2017-07-30T04:28:50.608Z,999.58
2017-07-30T04:29:39.668Z,999.59
2017-07-30T04:30:27.670Z,999.62
2017-07-30T04:31:16.779Z,999.58
2017-07-30T04:32:10.810Z,999.54
2017-07-30T04:33:05.778Z,999.51
2017-07-30T04:34:05.812Z,999.52
2017-07-30T04:34:59.849Z,999.49
2017-07-30T04:35:48.937Z,999.51
2017-07-30T04:36:37.977Z,999.45
2017-07-30T04:37:27.035Z,999.45
2017-07-30T04:38:16.129Z,999.41
2017-07-30T04:39:10.047Z,999.43
2017-07-30T04:40:05.125Z,999.43
2017-07-30T04:40:59.148Z,999.41
2017-07-30T04:41:54.178Z,999.40
2017-07-30T04:42:42.166Z,999.43
2017-07-30T04:43:31.075Z,999.41
2017-07-30T04:44:19.113Z,999.39
2017-07-30T04:45:07.346Z,999.45
2017-07-30T04:46:08.176Z,999.48
2017-07-30T04:47:02.217Z,999.48
2017-07-30T04:47:56.455Z,999.51
2017-07-30T04:48:51.410Z,999.48
2017-07-30T04:49:40.325Z,999.47
2017-07-30T04:50:28.642Z,999.45
2017-07-30T04:51:17.730Z,999.47
2017-07-30T04:52:06.404Z,999.48
2017-07-30T04:53:07.701Z,999.48
2017-07-30T04:53:56.859Z,999.45
2017-07-30T04:54:50.545Z,999.43
2017-07-30T04:55:38.910Z,999.47
2017-07-30T04:56:32.758Z,999.44
2017-07-30T04:57:20.866Z,999.48
2017-07-30T04:58:08.777Z,999.47
2017-07-30T04:59:02.776Z,999.42
2017-07-30T04:59:50.938Z,999.39
2017-07-30T05:00:51.999Z,999.38
2017-07-30T05:01:53.240Z,999.35
2017-07-30T05:02:53.087Z,999.35
2017-07-30T05:03:59.422Z,999.36
2017-07-30T05:04:54.122Z,999.37
2017-07-30T05:05:48.400Z,999.40
2017-07-30T05:06:48.011Z,999.44
2017-07-30T05:07:43.299Z,999.41
2017-07-30T05:08:38.527Z,999.42
2017-07-30T05:09:38.430Z,999.42
2017-07-30T05:10:33.413Z,999.43
2017-07-30T05:11:28.385Z,999.40
2017-07-30T05:12:17.541Z,999.38
2017-07-30T05:13:05.795Z,999.37
2017-07-30T05:13:53.779Z,999.36
2017-07-30T05:14:47.901Z,999.43
2017-07-30T05:15:48.013Z,999.37
2017-07-30T05:16:42.977Z,999.41
2017-07-30T05:17:43.065Z,999.44
2017-07-30T05:18:43.965Z,999.38
2017-07-30T05:19:44.002Z,999.40
2017-07-30T05:20:44.231Z,999.37
2017-07-30T05:21:44.185Z,999.37
2017-07-30T05:22:44.129Z,999.38
2017-07-30T05:23:44.183Z,999.36
2017-07-30T05:24:33.304Z,999.35
2017-07-30T05:25:21.331Z,999.35
2017-07-30T05:26:09.320Z,999.34
2017-07-30T05:26:57.176Z,999.34
2017-07-30T05:27:51.323Z,999.35
2017-07-30T05:28:40.568Z,999.38
2017-07-30T05:29:29.692Z,999.35
2017-07-30T05:30:18.531Z,999.37
2017-07-30T05:31:12.754Z,999.39
2017-07-30T05:32:07.735Z,999.37
2017-07-30T05:33:01.825Z,999.42
2017-07-30T05:33:50.815Z,999.37
2017-07-30T05:34:51.902Z,999.37
2017-07-30T05:35:40.861Z,999.38
2017-07-30T05:36:34.950Z,999.36
2017-07-30T05:37:24.141Z,999.33
2017-07-30T05:38:13.042Z,999.32
2017-07-30T05:39:01.066Z,999.28
2017-07-30T05:39:50.163Z,999.31
2017-07-30T05:40:38.236Z,999.36
2017-07-30T05:41:27.232Z,999.35
2017-07-30T05:42:16.356Z,999.36
2017-07-30T05:43:10.295Z,999.35
2017-07-30T05:44:10.405Z,999.37
2017-07-30T05:45:04.488Z,999.35
2017-07-30T05:45:58.403Z,999.37
2017-07-30T05:46:52.526Z,999.38
2017-07-30T05:47:53.621Z,999.39
2017-07-30T05:48:47.607Z,999.37
2017-07-30T05:49:47.631Z,999.37
2017-07-30T05:50:36.637Z,999.40
2017-07-30T05:51:30.767Z,999.39
2017-07-30T05:52:30.762Z,999.36
2017-07-30T05:53:25.849Z,999.33
2017-07-30T05:54:13.853Z,999.40
2017-07-30T05:55:14.016Z,999.38
2017-07-30T05:56:08.017Z,999.42
2017-07-30T05:57:01.960Z,999.39
2017-07-30T05:57:55.997Z,999.43
2017-07-30T05:58:45.126Z,999.44
2017-07-30T05:59:40.205Z,999.44
2017-07-30T06:00:28.234Z,999.38
2017-07-30T06:01:23.429Z,999.42
2017-07-30T06:02:12.341Z,999.35
2017-07-30T06:03:06.264Z,999.37
2017-07-30T06:04:06.715Z,999.39
2017-07-30T06:05:00.514Z,999.44
2017-07-30T06:05:49.550Z,999.39
2017-07-30T06:06:38.553Z,999.43
2017-07-30T06:07:38.607Z,999.42
2017-07-30T06:08:26.578Z,999.38
2017-07-30T06:09:20.738Z,999.34
2017-07-30T06:10:21.720Z,999.43
2017-07-30T06:11:15.784Z,999.49
2017-07-30T06:12:03.824Z,999.50
2017-07-30T06:12:52.868Z,999.45
2017-07-30T06:13:53.021Z,999.45
2017-07-30T06:14:42.044Z,999.42
2017-07-30T06:15:41.990Z,999.37
2017-07-30T06:16:42.149Z,999.33
2017-07-30T06:17:37.107Z,999.36
2017-07-30T06:18:37.235Z,999.41
2017-07-30T06:19:26.272Z,999.51
2017-07-30T06:20:15.305Z,999.45
2017-07-30T06:21:04.383Z,999.42
2017-07-30T06:21:58.332Z,999.52
2017-07-30T06:22:58.421Z,999.47
2017-07-30T06:23:53.452Z,999.49
2017-07-30T06:24:47.435Z,999.49
2017-07-30T06:25:36.532Z,999.51
2017-07-30T06:26:30.225Z,999.47
2017-07-30T06:27:19.430Z,999.52
2017-07-30T06:28:13.321Z,999.46
2017-07-30T06:29:13.534Z,999.35
2017-07-30T06:30:13.513Z,999.30
2017-07-30T06:31:08.681Z,999.31
2017-07-30T06:32:09.045Z,999.29
2017-07-30T06:32:58.096Z,999.40
2017-07-30T06:33:51.869Z,999.32
2017-07-30T06:34:46.939Z,999.26
2017-07-30T06:35:41.035Z,999.28
2017-07-30T06:36:35.050Z,999.23
2017-07-30T06:37:23.468Z,999.27
2017-07-30T06:38:23.503Z,999.18
2017-07-30T06:39:12.673Z,999.23
2017-07-30T06:40:07.659Z,999.18
2017-07-30T06:41:02.792Z,999.14
2017-07-30T06:41:51.938Z,999.06
2017-07-30T06:42:46.970Z,999.19
2017-07-30T06:43:35.936Z,999.21
2017-07-30T06:44:25.011Z,999.22
2017-07-30T06:45:25.128Z,999.21
2017-07-30T06:46:19.254Z,999.15
2017-07-30T06:47:13.238Z,999.15
2017-07-30T06:48:02.325Z,999.08
2017-07-30T06:48:57.488Z,999.22
2017-07-30T06:49:52.618Z,999.07
2017-07-30T06:50:47.636Z,999.04
2017-07-30T06:51:47.593Z,999.17
2017-07-30T06:52:42.769Z,999.18
2017-07-30T06:53:36.717Z,999.22
2017-07-30T06:54:25.819Z,999.23
2017-07-30T06:55:19.938Z,999.23
2017-07-30T06:56:14.961Z,999.23
2017-07-30T06:57:04.097Z,999.30
2017-07-30T06:57:53.262Z,999.28
2017-07-30T06:58:47.195Z,999.27
2017-07-30T06:59:47.257Z,999.24
2017-07-30T07:00:47.475Z,999.26
2017-07-30T07:01:41.533Z,999.23
2017-07-30T07:02:35.518Z,999.24
2017-07-30T07:03:30.555Z,999.13
2017-07-30T07:04:30.704Z,999.29
2017-07-30T07:05:25.865Z,999.22
2017-07-30T07:06:25.756Z,999.12
2017-07-30T07:07:14.853Z,999.14
2017-07-30T07:08:03.955Z,999.25
2017-07-30T07:08:57.981Z,999.22
2017-07-30T07:09:53.039Z,999.22
2017-07-30T07:10:42.264Z,999.25
2017-07-30T07:11:31.227Z,999.30
2017-07-30T07:12:37.345Z,999.33
2017-07-30T07:13:32.460Z,999.33
2017-07-30T07:14:21.534Z,999.36
2017-07-30T07:15:15.452Z,999.37
2017-07-30T07:16:15.644Z,999.37
2017-07-30T07:17:15.669Z,999.44
2017-07-30T07:18:09.651Z,999.44
2017-07-30T07:19:04.801Z,999.48
2017-07-30T07:19:58.890Z,999.41
2017-07-30T07:20:52.942Z,999.46
2017-07-30T07:21:46.934Z,999.50
2017-07-30T07:22:47.056Z,999.40
2017-07-30T07:23:42.210Z,999.40
2017-07-30T07:24:31.181Z,999.46
2017-07-30T07:25:26.284Z,999.51
2017-07-30T07:26:21.322Z,999.49
2017-07-30T07:27:15.386Z,999.39
2017-07-30T07:28:09.510Z,999.47
2017-07-30T07:29:03.617Z,999.47
2017-07-30T07:29:51.669Z,999.47
2017-07-30T07:30:40.768Z,999.49
2017-07-30T07:31:35.777Z,999.50
2017-07-30T07:32:29.826Z,999.64
2017-07-30T07:33:17.978Z,999.65
2017-07-30T07:34:12.053Z,999.70
2017-07-30T07:35:07.117Z,999.70
2017-07-30T07:36:07.470Z,999.93
2017-07-30T07:36:56.201Z,999.80
2017-07-30T07:37:50.266Z,999.71
2017-07-30T07:38:50.431Z,999.77
2017-07-30T07:39:38.482Z,999.82
2017-07-30T07:40:33.516Z,999.86
2017-07-30T07:41:33.615Z,999.67
2017-07-30T07:42:27.688Z,999.63
2017-07-30T07:43:22.749Z,999.89
2017-07-30T07:44:11.935Z,999.95
2017-07-30T07:45:06.009Z,1000.05
2017-07-30T07:46:00.911Z,999.93
2017-07-30T07:46:56.031Z,999.89
2017-07-30T07:47:50.164Z,999.84
2017-07-30T07:48:45.339Z,999.93
2017-07-30T07:49:34.274Z,999.87
2017-07-30T07:50:35.391Z,999.88
2017-07-30T07:51:24.445Z,999.95
2017-07-30T07:52:24.688Z,1000.00
2017-07-30T07:53:12.633Z,999.96
2017-07-30T07:54:07.675Z,999.95
2017-07-30T07:55:01.710Z,999.93
2017-07-30T07:55:56.786Z,999.98
2017-07-30T07:56:51.913Z,1000.05
2017-07-30T07:57:45.977Z,1000.06
2017-07-30T07:58:40.975Z,1000.12
2017-07-30T07:59:36.024Z,1000.20
2017-07-30T08:00:30.053Z,1000.08
2017-07-30T08:01:24.192Z,1000.01
2017-07-30T08:02:19.226Z,999.94
2017-07-30T08:03:13.273Z,999.99
2017-07-30T08:04:13.362Z,999.99
2017-07-30T08:05:07.410Z,999.99
2017-07-30T08:06:07.403Z,1000.02
2017-07-30T08:07:01.536Z,1000.07
2017-07-30T08:07:56.511Z,1000.01
2017-07-30T08:08:50.510Z,1000.08
2017-07-30T08:09:38.614Z,1000.05
2017-07-30T08:10:27.711Z,1000.14
2017-07-30T08:11:16.771Z,1000.15
2017-07-30T08:12:11.786Z,1000.25
2017-07-30T08:13:05.896Z,1000.17
2017-07-30T08:13:54.951Z,1000.43
2017-07-30T08:14:48.950Z,1000.25
2017-07-30T08:15:43.147Z,1000.32
2017-07-30T08:16:37.164Z,1000.22
2017-07-30T08:17:26.254Z,1000.03
2017-07-30T08:18:26.300Z,1000.07
2017-07-30T08:19:20.509Z,1000.30
2017-07-30T08:20:15.516Z,1000.20
2017-07-30T08:21:09.600Z,1000.23
2017-07-30T08:22:03.622Z,1000.32
2017-07-30T08:22:57.691Z,1000.33
2017-07-30T08:23:46.763Z,1000.23
2017-07-30T08:24:41.912Z,1000.25
2017-07-30T08:25:41.892Z,1000.11
2017-07-30T08:26:35.976Z,1000.15
2017-07-30T08:27:24.989Z,1000.43
2017-07-30T08:28:19.143Z,1000.39
2017-07-30T08:29:13.197Z,1000.43
2017-07-30T08:30:08.252Z,1000.44
2017-07-30T08:31:08.275Z,1000.44
2017-07-30T08:32:02.283Z,1000.48
2017-07-30T08:32:56.385Z,1000.44
2017-07-30T08:33:50.464Z,1000.48
2017-07-30T08:34:38.426Z,1000.48
2017-07-30T08:35:32.561Z,1000.44
2017-07-30T08:36:26.675Z,1000.36
2017-07-30T08:37:15.754Z,1000.44
2017-07-30T08:38:10.687Z,1000.37
2017-07-30T08:38:58.761Z,1000.35
2017-07-30T08:39:53.829Z,1000.48
2017-07-30T08:40:47.970Z,1000.27
2017-07-30T08:41:43.043Z,1000.32
2017-07-30T08:42:37.059Z,1000.30
2017-07-30T08:43:31.182Z,1000.44
2017-07-30T08:44:19.216Z,1000.44
2017-07-30T08:45:14.249Z,1000.50
2017-07-30T08:46:08.528Z,1000.33
2017-07-30T08:47:02.480Z,1000.44
2017-07-30T08:47:56.547Z,1000.56
2017-07-30T08:48:57.619Z,1000.56
2017-07-30T08:49:52.804Z,1000.51
2017-07-30T08:50:47.845Z,1000.57
2017-07-30T08:51:47.910Z,1000.45
2017-07-30T08:52:35.986Z,1000.56
2017-07-30T08:53:29.979Z,1000.57
2017-07-30T08:54:19.079Z,1000.62
2017-07-30T08:55:13.217Z,1000.41
2017-07-30T08:56:08.195Z,1000.56
2017-07-30T08:57:14.350Z,1000.59
2017-07-30T08:58:02.452Z,1000.63
2017-07-30T08:58:57.404Z,1000.59
2017-07-30T08:59:57.596Z,1000.57
2017-07-30T09:00:57.559Z,1000.35
2017-07-30T09:01:46.644Z,1000.27
2017-07-30T09:02:41.741Z,1000.38
2017-07-30T09:03:35.846Z,1000.44
2017-07-30T09:04:29.939Z,1000.49
2017-07-30T09:05:24.953Z,1000.59
2017-07-30T09:06:19.032Z,1000.52
2017-07-30T09:07:13.044Z,1000.70
2017-07-30T09:08:14.211Z,1000.65
2017-07-30T09:09:08.216Z,1000.71
2017-07-30T09:10:02.252Z,1000.66
2017-07-30T09:10:56.381Z,1000.73
2017-07-30T09:11:57.431Z,1000.64
2017-07-30T09:12:46.466Z,1000.58
2017-07-30T09:13:35.479Z,1000.64
2017-07-30T09:14:29.639Z,1000.66
2017-07-30T09:15:24.594Z,1000.72
2017-07-30T09:16:18.704Z,1000.78
2017-07-30T09:17:12.698Z,1000.64
2017-07-30T09:18:06.787Z,1000.63
2017-07-30T09:19:06.878Z,1000.72
2017-07-30T09:19:55.914Z,1000.80
2017-07-30T09:20:50.968Z,1000.72
2017-07-30T09:21:45.061Z,1000.67
2017-07-30T09:22:45.178Z,1000.77
2017-07-30T09:23:34.256Z,1000.83
2017-07-30T09:24:34.618Z,1000.84
2017-07-30T09:25:34.286Z,1000.85
2017-07-30T09:26:28.422Z,1000.85
2017-07-30T09:27:23.532Z,1000.93
2017-07-30T09:28:18.635Z,1000.80
2017-07-30T09:29:07.700Z,1000.86
2017-07-30T09:30:07.919Z,1000.83
2017-07-30T09:30:55.752Z,1000.81
2017-07-30T09:31:50.892Z,1000.70
2017-07-30T09:32:46.040Z,1000.61
2017-07-30T09:33:39.994Z,1000.69
2017-07-30T09:34:29.108Z,1000.78
2017-07-30T09:35:29.229Z,1000.81
2017-07-30T09:36:29.328Z,1000.99
2017-07-30T09:37:18.348Z,1000.98
2017-07-30T09:38:18.352Z,1000.61
2017-07-30T09:39:18.400Z,1000.83
2017-07-30T09:40:18.554Z,1000.66
2017-07-30T09:41:12.678Z,1000.53
2017-07-30T09:42:07.659Z,1000.60
2017-07-30T09:43:02.784Z,1000.54
2017-07-30T09:43:56.861Z,1000.47
2017-07-30T09:44:51.894Z,1000.62
2017-07-30T09:45:39.989Z,1000.56
2017-07-30T09:46:40.475Z,1000.57
2017-07-30T09:47:41.178Z,1000.61
2017-07-30T09:48:36.244Z,1000.82
2017-07-30T09:49:25.328Z,1000.51
2017-07-30T09:50:14.465Z,1000.61
2017-07-30T09:51:14.408Z,1000.35
2017-07-30T09:52:14.922Z,1000.49
2017-07-30T09:53:08.655Z,1000.36
2017-07-30T09:54:02.628Z,1000.40
2017-07-30T09:54:51.795Z,1000.64
2017-07-30T09:55:40.849Z,1000.65
2017-07-30T09:56:40.902Z,1000.74
2017-07-30T09:57:41.282Z,1000.77
2017-07-30T09:58:41.013Z,1000.88
2017-07-30T09:59:30.137Z,1000.89
2017-07-30T10:00:18.229Z,1000.83
2017-07-30T10:01:13.322Z,1000.84
2017-07-30T10:02:07.415Z,1000.84
2017-07-30T10:03:01.644Z,1000.83
2017-07-30T10:03:55.580Z,1000.87
2017-07-30T10:04:44.580Z,1000.84
2017-07-30T10:05:38.733Z,1001.01
2017-07-30T10:06:33.785Z,1000.85
2017-07-30T10:07:28.879Z,1000.94
2017-07-30T10:08:28.908Z,1001.08
2017-07-30T10:09:23.983Z,1000.94
2017-07-30T10:10:18.958Z,1000.99
2017-07-30T10:11:08.176Z,1000.84
2017-07-30T10:11:57.153Z,1000.77
2017-07-30T10:12:51.313Z,1000.99
2017-07-30T10:13:45.377Z,1000.87
2017-07-30T10:14:39.461Z,1000.83
2017-07-30T10:15:34.593Z,1000.88
2017-07-30T10:16:28.611Z,1000.80
2017-07-30T10:17:17.754Z,1000.85
2017-07-30T10:18:17.777Z,1000.82
2017-07-30T10:19:12.960Z,1000.82
2017-07-30T10:20:01.943Z,1000.84
2017-07-30T10:20:51.080Z,1000.80
2017-07-30T10:21:45.106Z,1000.73
2017-07-30T10:22:40.131Z,1000.76
2017-07-30T10:23:40.267Z,1000.95
2017-07-30T10:24:34.315Z,1000.87
2017-07-30T10:25:29.302Z,1000.92
2017-07-30T10:26:18.522Z,1000.96
2017-07-30T10:27:12.613Z,1001.09
2017-07-30T10:28:06.627Z,1000.98
2017-07-30T10:29:01.729Z,1000.92
2017-07-30T10:29:55.707Z,1000.92
2017-07-30T10:30:50.862Z,1000.82
2017-07-30T10:31:45.951Z,1000.69
2017-07-30T10:32:39.969Z,1000.75
2017-07-30T10:33:34.162Z,1000.69
2017-07-30T10:34:28.157Z,1000.75
2017-07-30T10:35:17.458Z,1000.79
2017-07-30T10:36:06.289Z,1000.63
2017-07-30T10:37:06.323Z,1000.51
2017-07-30T10:37:55.440Z,1000.65
2017-07-30T10:38:55.612Z,1000.90
2017-07-30T10:39:50.555Z,1001.01
2017-07-30T10:40:39.693Z,1001.02
2017-07-30T10:41:28.809Z,1001.02
2017-07-30T10:42:23.777Z,1000.99
2017-07-30T10:43:18.816Z,1000.96
2017-07-30T10:44:07.907Z,1001.00
2017-07-30T10:45:07.989Z,1001.03
2017-07-30T10:46:03.124Z,1001.05
2017-07-30T10:46:57.217Z,1001.00
2017-07-30T10:47:51.116Z,1001.06
2017-07-30T10:48:52.272Z,1001.03
2017-07-30T10:49:52.316Z,1000.91
2017-07-30T10:50:47.477Z,1000.95
2017-07-30T10:51:36.512Z,1001.06
2017-07-30T10:52:25.593Z,1000.93
2017-07-30T10:53:25.582Z,1000.95
2017-07-30T10:54:14.775Z,1000.99
2017-07-30T10:55:08.811Z,1001.01
2017-07-30T10:56:03.890Z,1001.02
2017-07-30T10:56:59.022Z,1000.91
2017-07-30T10:57:53.049Z,1001.01
2017-07-30T10:58:48.139Z,1000.94
2017-07-30T10:59:42.195Z,1001.00
2017-07-30T11:00:37.304Z,1000.99
2017-07-30T11:01:26.433Z,1000.96
2017-07-30T11:02:15.544Z,1000.89
2017-07-30T11:03:09.588Z,1000.92
2017-07-30T11:03:58.597Z,1000.93
2017-07-30T11:04:46.595Z,1000.93
2017-07-30T11:05:40.732Z,1000.85
2017-07-30T11:06:35.975Z,1000.88